Time;durP1;ratioP1;P1;durP2;ratioP2;P2;SDS_P1;SDS_P2;PMS_P1;PMS_P2;Temp;Humidity;BMP_temperature;BMP_pressure;BME280_temperature;BME280_humidity;BME280_pressure;Samples;Min_cycle;Max_cycle;Signal;HPM_P1;HPM_P2
2021/01/06 00:01:50;;;;;;;24.20;8.65;;;;;;;0.36;90.59;99738.02;120588;1146;22934;-61
2021/01/06 00:04:20;;;;;;;27.32;9.18;;;;;;;0.36;90.51;99737.24;120515;1147;23045;-62
2021/01/06 00:06:50;;;;;;;23.00;7.40;;;;;;;0.35;90.67;99746.69;120652;1147;24578;-60
2021/01/06 00:09:21;;;;;;;23.18;8.65;;;;;;;0.34;90.32;99739.64;120578;1147;26855;-58
2021/01/06 00:11:52;;;;;;;23.47;7.95;;;;;;;0.34;90.33;99751.41;120610;1147;22941;-59
2021/01/06 00:14:22;;;;;;;25.40;8.87;;;;;;;0.34;90.95;99754.15;120502;1146;22992;-61
2021/01/06 00:16:55;;;;;;;25.72;9.08;;;;;;;0.34;90.71;99742.38;120576;1146;22913;-60
2021/01/06 00:19:25;;;;;;;26.93;8.87;;;;;;;0.33;90.53;99744.34;120875;1147;22917;-59
2021/01/06 00:21:55;;;;;;;21.85;8.05;;;;;;;0.33;90.77;99763.56;120571;1146;22966;-59
2021/01/06 00:24:25;;;;;;;19.80;7.28;;;;;;;0.34;90.37;99762.38;120559;1147;23424;-60
2021/01/06 00:26:55;;;;;;;20.95;7.08;;;;;;;0.34;90.95;99753.36;120505;1147;22913;-61
2021/01/06 00:29:27;;;;;;;22.20;7.20;;;;;;;0.32;90.28;99759.28;120503;1147;22883;-62
2021/01/06 00:31:58;;;;;;;21.07;7.07;;;;;;;0.32;90.30;99747.52;120592;1146;24561;-59
2021/01/06 00:34:28;;;;;;;21.90;7.60;;;;;;;0.32;90.51;99753.80;120488;1148;22944;-61
2021/01/06 00:36:58;;;;;;;20.83;7.13;;;;;;;0.32;90.54;99758.50;120455;1148;26382;-63
2021/01/06 00:39:28;;;;;;;22.13;7.50;;;;;;;0.33;90.39;99754.58;120421;1148;22948;-58
2021/01/06 00:41:59;;;;;;;19.25;6.12;;;;;;;0.33;90.49;99749.84;120594;1147;23222;-58
2021/01/06 00:44:29;;;;;;;22.57;7.47;;;;;;;0.33;90.92;99760.82;120456;1148;22938;-60
2021/01/06 00:46:59;;;;;;;21.90;7.33;;;;;;;0.34;90.59;99762.38;120541;1146;26350;-61
2021/01/06 00:49:30;;;;;;;21.10;7.62;;;;;;;0.36;90.69;99753.72;120461;1148;23025;-61
2021/01/06 00:51:59;;;;;;;;;;;;;;;0.37;90.49;99755.28;120604;1148;22910;-61
2021/01/06 00:54:29;;;;;;;22.40;6.50;;;;;;;0.35;91.00;99755.69;120487;1147;24469;-61
2021/01/06 00:56:59;;;;;;;23.87;7.55;;;;;;;0.37;90.65;99758.03;120531;1148;22952;-61
2021/01/06 00:59:28;;;;;;;;;;;;;;;0.39;90.51;99758.38;120460;1147;22945;-61
2021/01/06 01:01:58;;;;;;;21.20;7.60;;;;;;;0.39;90.54;99758.38;120533;1147;21624;-61
2021/01/06 01:04:28;;;;;;;24.60;8.38;;;;;;;0.39;90.69;99761.91;120420;1148;22913;-60
2021/01/06 01:06:58;;;;;;;24.05;8.53;;;;;;;0.41;91.07;99769.72;120433;1148;24310;-61
2021/01/06 01:09:29;;;;;;;20.70;7.90;;;;;;;0.44;91.03;99769.64;120491;1146;22930;-60
2021/01/06 01:11:59;;;;;;;22.37;8.33;;;;;;;0.44;90.96;99774.34;120710;1147;23010;-61
2021/01/06 01:14:29;;;;;;;21.90;7.83;;;;;;;0.44;90.51;99771.60;120507;1147;22966;-61
2021/01/06 01:17:01;;;;;;;22.75;6.15;;;;;;;0.45;90.41;99775.91;120582;1148;23014;-61
2021/01/06 01:19:31;;;;;;;20.43;6.87;;;;;;;0.46;90.46;99766.46;120471;1147;27260;-61
2021/01/06 01:22:01;;;;;;;19.98;7.08;;;;;;;0.47;90.33;99773.52;120610;1147;26360;-58
2021/01/06 01:24:31;;;;;;;21.57;7.07;;;;;;;0.48;90.42;99769.56;120688;1148;22969;-59
2021/01/06 01:27:01;;;;;;;19.40;7.17;;;;;;;0.49;90.42;99763.66;120522;1148;22972;-61
2021/01/06 01:29:32;;;;;;;21.12;7.30;;;;;;;0.51;90.69;99766.77;120563;1148;22922;-61
2021/01/06 01:32:03;;;;;;;23.20;6.87;;;;;;;0.52;90.98;99768.30;120378;1146;23070;-61
2021/01/06 01:34:33;;;;;;;20.57;6.37;;;;;;;0.53;90.22;99769.08;120531;1147;22972;-60
2021/01/06 01:37:04;;;;;;;20.90;6.13;;;;;;;0.53;90.11;99769.86;120451;1148;22929;-61
2021/01/06 01:39:35;;;;;;;21.45;6.92;;;;;;;0.52;90.68;99760.06;120498;1147;26381;-62
2021/01/06 01:42:06;;;;;;;23.43;6.47;;;;;;;0.53;90.78;99764.37;120593;1147;27260;-61
2021/01/06 01:44:57;;;;;;;22.95;7.15;;;;;;;0.55;90.87;99772.95;120585;1147;25963;-59
2021/01/06 01:47:35;;;;;;;20.83;6.97;;;;;;;0.56;90.93;99754.52;120464;1147;27774;-61
2021/01/06 01:50:07;;;;;;;23.15;7.65;;;;;;;0.57;90.45;99754.09;120515;1147;23419;-60
2021/01/06 01:52:45;;;;;;;21.37;6.50;;;;;;;0.59;90.73;99748.94;120496;1146;22917;-62
2021/01/06 01:55:18;;;;;;;21.73;6.23;;;;;;;0.58;90.69;99744.63;120428;1148;22966;-60
2021/01/06 01:57:53;;;;;;;19.57;6.80;;;;;;;0.60;90.65;99744.98;120617;1147;22938;-58
2021/01/06 02:00:27;;;;;;;21.67;6.87;;;;;;;0.60;90.65;99741.48;120684;1147;26852;-59
2021/01/06 02:03:05;;;;;;;19.77;6.27;;;;;;;0.60;90.43;99742.23;120581;1147;22933;-61
2021/01/06 02:05:38;;;;;;;22.53;7.43;;;;;;;0.61;90.06;99751.26;120605;1147;24575;-60
2021/01/06 02:08:13;;;;;;;22.80;7.00;;;;;;;0.63;90.89;99754.35;120597;1147;22913;-60
2021/01/06 02:10:52;;;;;;;22.33;6.93;;;;;;;0.68;91.02;99749.13;120617;1147;22913;-60
2021/01/06 02:13:25;;;;;;;22.00;7.67;;;;;;;0.69;90.11;99742.45;120570;1148;24101;-60
2021/01/06 02:16:10;;;;;;;21.30;6.73;;;;;;;0.70;90.23;99741.23;120523;1147;26385;-60
2021/01/06 02:18:40;;;;;;;18.73;6.37;;;;;;;0.71;90.78;99744.77;120598;1148;22913;-59
2021/01/06 02:21:13;;;;;;;20.75;6.47;;;;;;;0.70;90.33;99745.98;120582;1147;22938;-58
2021/01/06 02:23:48;;;;;;;24.77;7.03;;;;;;;0.70;90.35;99741.23;120559;1147;25892;-60
2021/01/06 02:26:20;;;;;;;23.93;7.53;;;;;;;0.73;90.29;99750.61;120659;1146;22966;-60
2021/01/06 02:28:51;;;;;;;21.65;6.90;;;;;;;0.73;90.78;99739.62;120648;1146;26350;-60
2021/01/06 02:31:22;;;;;;;19.12;6.45;;;;;;;0.73;90.33;99737.66;120675;1146;22995;-60
2021/01/06 02:33:53;;;;;;;;;;;;;;;0.74;91.08;99736.47;120630;1146;22969;-59
2021/01/06 02:36:25;;;;;;;21.77;6.70;;;;;;;0.74;90.00;99736.47;120717;1148;24259;-61
2021/01/06 02:38:57;;;;;;;20.73;7.37;;;;;;;0.75;90.62;99740.75;120559;1147;24537;-59
2021/01/06 02:41:27;;;;;;;21.57;6.50;;;;;;;0.78;90.56;99731.67;120691;1146;22938;-61
2021/01/06 02:43:58;;;;;;;19.05;6.97;;;;;;;0.81;90.50;99730.80;120561;1147;22938;-59
2021/01/06 02:46:28;;;;;;;24.37;8.95;;;;;;;0.83;90.84;99732.37;120605;1146;27221;-59
2021/01/06 02:49:00;;;;;;;19.00;7.10;;;;;;;0.80;90.33;99723.78;120505;1148;24734;-60
2021/01/06 02:51:38;;;;;;;25.63;8.33;;;;;;;0.81;90.77;99728.05;120763;1146;23356;-60
2021/01/06 02:54:12;;;;;;;26.73;8.10;;;;;;;0.81;90.50;99727.28;120641;1146;22908;-61
2021/01/06 02:56:43;;;;;;;23.63;8.03;;;;;;;0.81;90.00;99727.28;120752;1147;26011;-59
2021/01/06 02:59:15;;;;;;;23.37;8.27;;;;;;;0.83;89.97;99737.86;120531;1146;22997;-61
2021/01/06 03:01:48;;;;;;;24.03;8.23;;;;;;;0.82;90.28;99737.08;120512;1147;22913;-59
2021/01/06 03:04:20;;;;;;;25.23;9.20;;;;;;;0.83;90.72;99735.87;120551;1146;22924;-60
2021/01/06 03:06:54;;;;;;;21.03;7.90;;;;;;;0.83;90.38;99732.37;120693;1146;23175;-58
2021/01/06 03:09:30;;;;;;;22.40;7.87;;;;;;;0.83;89.96;99735.87;120660;1146;22906;-59
2021/01/06 03:12:03;;;;;;;21.17;6.43;;;;;;;0.82;90.58;99742.58;120572;1146;23025;-60
2021/01/06 03:14:35;;;;;;;23.60;7.30;;;;;;;0.80;90.45;99740.27;120550;1147;27372;-61
2021/01/06 03:17:07;;;;;;;20.90;7.53;;;;;;;0.81;90.53;99744.55;120571;1147;23089;-59
2021/01/06 03:19:42;;;;;;;18.07;6.17;;;;;;;0.82;90.62;99737.08;120513;1147;22927;-61
2021/01/06 03:22:16;;;;;;;22.90;8.50;;;;;;;0.81;90.48;99730.80;120541;1148;22920;-60
2021/01/06 03:24:51;;;;;;;19.20;6.67;;;;;;;0.80;90.48;99721.03;120499;1146;22966;-60
2021/01/06 03:27:24;;;;;;;20.13;6.67;;;;;;;0.78;90.21;99723.42;120501;1146;25951;-59
2021/01/06 03:29:55;;;;;;;18.50;5.83;;;;;;;0.74;90.69;99714.48;120531;1147;22946;-61
2021/01/06 03:32:37;;;;;;;18.97;6.23;;;;;;;0.74;90.64;99725.48;120605;1146;26354;-60
2021/01/06 03:35:15;;;;;;;19.23;6.77;;;;;;;0.75;90.78;99724.27;120539;1148;22917;-60
2021/01/06 03:37:51;;;;;;;21.77;6.90;;;;;;;0.75;90.72;99729.77;120535;1147;22966;-60
2021/01/06 03:40:28;;;;;;;22.33;7.73;;;;;;;0.74;90.72;99733.72;120631;1146;22948;-60
2021/01/06 03:42:59;;;;;;;18.00;6.30;;;;;;;0.75;90.65;99727.02;120541;1148;23077;-61
2021/01/06 03:45:34;;;;;;;22.37;8.63;;;;;;;0.75;90.73;99720.73;120521;1146;22913;-61
2021/01/06 03:48:12;;;;;;;21.65;5.40;;;;;;;0.75;90.05;99726.23;120530;1146;25893;-60
2021/01/06 03:50:43;;;;;;;19.20;5.97;;;;;;;0.71;90.56;99717.29;120536;1147;22949;-60
2021/01/06 03:53:27;;;;;;;19.40;5.97;;;;;;;0.70;90.48;99718.51;120517;1147;26078;-59
2021/01/06 03:56:01;;;;;;;18.27;6.10;;;;;;;0.70;89.73;99718.51;120481;1147;27255;-59
2021/01/06 03:58:43;;;;;;;16.43;5.50;;;;;;;0.69;90.03;99727.94;120659;1146;23002;-59
2021/01/06 04:01:37;;;;;;;17.55;5.45;;;;;;;0.68;90.43;99729.90;120649;1146;23077;-59
2021/01/06 04:04:16;;;;;;;21.15;6.50;;;;;;;0.70;90.52;99732.99;120350;1149;22932;-59
2021/01/06 04:06:50;;;;;;;19.03;5.60;;;;;;;0.71;89.99;99729.06;120386;1149;22948;-60
2021/01/06 04:09:29;;;;;;;16.03;5.20;;;;;;;0.75;90.04;99732.50;120424;1151;22932;-60
2021/01/06 04:12:06;;;;;;;16.97;5.20;;;;;;;0.78;90.09;99728.14;120358;1150;23243;-58
2021/01/06 04:14:37;;;;;;;17.20;5.93;;;;;;;0.82;90.62;99726.09;120220;1149;22910;-61
2021/01/06 04:17:24;;;;;;;19.47;6.10;;;;;;;0.84;90.64;99729.19;120197;1149;22956;-60
2021/01/06 04:19:56;;;;;;;17.60;5.93;;;;;;;0.87;90.54;99727.56;120201;1149;23110;-60
2021/01/06 04:22:41;;;;;;;18.97;5.30;;;;;;;0.89;89.93;99730.66;120321;1150;22941;-61
2021/01/06 04:25:21;;;;;;;20.77;6.77;;;;;;;0.91;90.39;99728.27;120319;1150;22941;-60
2021/01/06 04:27:53;;;;;;;18.93;6.03;;;;;;;0.93;90.61;99736.85;120398;1150;22939;-60
2021/01/06 04:30:29;;;;;;;21.23;6.07;;;;;;;0.96;90.56;99741.48;120157;1150;22947;-58
2021/01/06 04:33:01;;;;;;;18.73;5.57;;;;;;;0.95;90.48;99743.48;120288;1150;22927;-60
2021/01/06 04:35:32;;;;;;;17.90;5.87;;;;;;;0.96;90.42;99747.77;120425;1150;22939;-59
2021/01/06 04:38:04;;;;;;;15.80;5.13;;;;;;;0.97;89.91;99740.30;120442;1149;23063;-61
2021/01/06 04:40:38;;;;;;;18.75;5.55;;;;;;;0.95;90.24;99750.94;120367;1149;22944;-60
2021/01/06 04:43:16;;;;;;;18.40;6.30;;;;;;;0.92;90.22;99743.53;120650;1147;22988;-62
2021/01/06 04:46:02;;;;;;;21.00;7.47;;;;;;;0.92;90.46;99740.78;120575;1148;22916;-61
2021/01/06 04:48:56;;;;;;;21.70;7.27;;;;;;;0.95;89.96;99743.48;120502;1148;22913;-61
2021/01/06 04:51:42;;;;;;;21.27;7.07;;;;;;;0.96;90.44;99752.47;120774;1148;22896;-58
2021/01/06 04:54:58;;;;;;;20.77;7.00;;;;;;;0.99;90.43;99743.39;120591;1146;27384;-61
2021/01/06 04:57:41;;;;;;;22.90;7.60;;;;;;;0.99;89.94;99746.14;120183;1150;22958;-60
2021/01/06 05:00:28;;;;;;;24.70;8.27;;;;;;;0.98;89.68;99747.33;120305;1150;23017;-61
2021/01/06 05:03:25;;;;;;;21.03;7.10;;;;;;;0.97;90.00;99751.29;120325;1149;22951;-61
2021/01/06 05:06:21;;;;;;;19.35;6.30;;;;;;;0.96;89.84;99750.51;120409;1149;25461;-60
2021/01/06 05:08:53;;;;;;;20.70;6.70;;;;;;;0.95;89.95;99757.22;120452;1150;23077;-62
2021/01/06 05:11:28;;;;;;;21.13;7.03;;;;;;;0.94;89.86;99752.13;120329;1150;22957;-60
2021/01/06 05:14:02;;;;;;;21.80;8.17;;;;;;;0.92;90.19;99760.02;120423;1150;22944;-60
2021/01/06 05:16:37;;;;;;;21.60;8.00;;;;;;;0.93;90.10;99761.59;120361;1150;22944;-59
2021/01/06 05:19:16;;;;;;;22.20;7.87;;;;;;;0.93;89.87;99753.34;120402;1150;26002;-59
2021/01/06 05:21:47;;;;;;;22.97;8.10;;;;;;;0.93;89.95;99750.59;120357;1151;22938;-60
2021/01/06 05:24:25;;;;;;;26.47;8.83;;;;;;;0.95;90.35;99748.97;120374;1149;27696;-60
2021/01/06 05:27:14;;;;;;;25.63;8.53;;;;;;;0.95;89.67;99750.94;120427;1150;24554;-61
2021/01/06 05:29:47;;;;;;;24.13;8.50;;;;;;;0.96;90.11;99753.25;120371;1151;22938;-59
2021/01/06 05:32:20;;;;;;;26.40;9.97;;;;;;;0.98;89.92;99750.86;120346;1150;26095;-61
2021/01/06 05:34:53;;;;;;;26.00;9.20;;;;;;;0.99;89.76;99751.64;120611;1148;22948;-60
2021/01/06 05:37:25;;;;;;;23.57;9.27;;;;;;;0.99;89.84;99754.38;120590;1147;23794;-61
2021/01/06 05:40:00;;;;;;;24.10;8.43;;;;;;;1.02;90.19;99761.77;120594;1148;22913;-60
2021/01/06 05:42:42;;;;;;;27.60;9.65;;;;;;;1.02;90.04;99753.52;120412;1148;22972;-61
2021/01/06 05:45:14;;;;;;;26.00;8.83;;;;;;;1.03;90.21;99747.62;120529;1148;23024;-60
2021/01/06 05:47:50;;;;;;;23.37;9.27;;;;;;;1.04;89.94;99753.86;120568;1146;22949;-60
2021/01/06 05:50:24;;;;;;;26.10;9.40;;;;;;;1.04;89.90;99749.15;120509;1148;22917;-60
2021/01/06 05:53:03;;;;;;;23.90;9.50;;;;;;;1.03;90.01;99750.36;120572;1146;22907;-61
2021/01/06 05:55:37;;;;;;;29.20;10.53;;;;;;;1.04;89.94;99753.86;120659;1146;27333;-61
2021/01/06 05:58:16;;;;;;;28.47;9.60;;;;;;;1.02;90.08;99753.52;120445;1147;22913;-61
2021/01/06 06:00:53;;;;;;;26.37;10.43;;;;;;;1.02;89.67;99759.80;120564;1148;23018;-60
2021/01/06 06:03:43;;;;;;;28.40;11.30;;;;;;;1.02;89.37;99759.80;120597;1148;22867;-59
2021/01/06 06:06:54;;;;;;;24.87;10.53;;;;;;;1.03;90.11;99766.08;120631;1147;23076;-60
2021/01/06 06:09:48;;;;;;;28.87;11.40;;;;;;;1.02;90.10;99767.27;120399;1149;27300;-60
2021/01/06 06:12:40;;;;;;;31.43;10.80;;;;;;;1.00;89.70;99770.44;120341;1150;24756;-61
2021/01/06 06:15:45;;;;;;;31.60;11.23;;;;;;;1.00;89.88;99764.95;120260;1150;24605;-59
2021/01/06 06:18:45;;;;;;;30.00;11.37;;;;;;;1.00;89.89;99764.95;120334;1150;22942;-60
2021/01/06 06:21:24;;;;;;;29.40;12.13;;;;;;;0.99;89.37;99766.16;120230;1150;22963;-60
2021/01/06 06:24:11;;;;;;;29.83;11.40;;;;;;;1.01;89.39;99758.27;120254;1150;22871;-60
2021/01/06 06:26:51;;;;;;;26.87;9.87;;;;;;;1.01;89.86;99762.98;120258;1149;22960;-60
2021/01/06 06:29:28;;;;;;;30.15;11.22;;;;;;;1.01;89.96;99760.23;120258;1150;27417;-60
2021/01/06 06:31:59;;;;;;;27.30;10.53;;;;;;;1.01;89.91;99751.98;120318;1150;22985;-60
2021/01/06 06:34:33;;;;;;;27.93;11.90;;;;;;;1.00;89.47;99759.45;120380;1149;22929;-60
2021/01/06 06:37:10;;;;;;;23.93;10.60;;;;;;;1.01;89.42;99761.02;120335;1150;22968;-58
2021/01/06 06:39:45;;;;;;;29.80;11.57;;;;;;;0.98;89.73;99764.59;120371;1150;22949;-60
2021/01/06 06:42:27;;;;;;;29.20;11.20;;;;;;;0.94;89.15;99763.13;120575;1147;22909;-59
2021/01/06 06:45:01;;;;;;;28.70;11.13;;;;;;;0.93;89.32;99765.12;120557;1147;24335;-59
2021/01/06 06:47:55;;;;;;;32.10;13.40;;;;;;;0.93;89.94;99764.34;120620;1146;22917;-61
2021/01/06 06:50:58;;;;;;;35.73;16.60;;;;;;;0.91;89.87;99769.48;120302;1147;27259;-60
2021/01/06 06:53:37;;;;;;;46.53;23.03;;;;;;;0.90;89.63;99770.67;120341;1151;27609;-61
2021/01/06 06:56:16;;;;;;;39.97;18.53;;;;;;;0.88;89.27;99778.56;120294;1150;22926;-59
2021/01/06 06:58:51;;;;;;;36.95;15.40;;;;;;;0.86;89.84;99781.74;120283;1149;22926;-59
2021/01/06 07:01:26;;;;;;;33.63;14.27;;;;;;;0.86;89.92;99781.74;120355;1150;23014;-59
2021/01/06 07:04:02;;;;;;;32.73;13.50;;;;;;;0.87;89.59;99783.28;120455;1150;27768;-59
2021/01/06 07:06:34;;;;;;;36.20;15.67;;;;;;;0.88;89.73;99789.55;120500;1150;26690;-60
2021/01/06 07:09:06;;;;;;;43.03;19.00;;;;;;;0.88;89.33;99793.08;120328;1150;22951;-61
2021/01/06 07:11:45;;;;;;;53.40;21.97;;;;;;;0.88;89.94;99789.55;120460;1150;22926;-60
2021/01/06 07:14:23;;;;;;;49.90;20.90;;;;;;;0.88;90.02;99787.59;120368;1151;22990;-58
2021/01/06 07:17:02;;;;;;;45.50;19.47;;;;;;;0.89;89.73;99788.37;120388;1150;22951;-58
2021/01/06 07:19:34;;;;;;;57.90;22.75;;;;;;;0.89;89.39;99785.63;120329;1150;24547;-59
2021/01/06 07:22:21;;;;;;;59.00;23.85;;;;;;;0.87;89.96;99782.52;120350;1150;22995;-60
2021/01/06 07:24:58;;;;;;;78.27;29.17;;;;;;;0.86;89.74;99784.49;120457;1150;22925;-61
2021/01/06 07:27:32;;;;;;;98.30;39.87;;;;;;;0.87;89.95;99785.27;120387;1150;22932;-60
2021/01/06 07:30:04;;;;;;;134.13;54.43;;;;;;;0.89;89.71;99793.87;120595;1148;26631;-60
2021/01/06 07:32:39;;;;;;;167.17;70.00;;;;;;;0.91;89.98;99783.22;120767;1147;22918;-60
2021/01/06 07:35:12;;;;;;;181.03;76.70;;;;;;;0.90;89.48;99787.94;120530;1148;23019;-59
2021/01/06 07:37:45;;;;;;;177.60;75.70;;;;;;;0.91;89.16;99783.98;120705;1146;22939;-61
2021/01/06 07:40:26;;;;;;;168.10;69.70;;;;;;;0.93;89.02;99781.61;120629;1147;24720;-58
2021/01/06 07:43:16;;;;;;;129.80;55.03;;;;;;;0.95;89.01;99778.42;120664;1147;22925;-59
2021/01/06 07:45:54;;;;;;;95.03;42.05;;;;;;;0.95;89.32;99778.42;120573;1147;24589;-60
2021/01/06 07:48:40;;;;;;;89.93;37.73;;;;;;;0.95;89.33;99775.67;120831;1146;26312;-61
2021/01/06 07:51:19;;;;;;;76.77;33.63;;;;;;;0.96;88.81;99775.24;120648;1148;22913;-59
2021/01/06 07:53:59;;;;;;;69.00;31.93;;;;;;;0.99;89.29;99784.62;120609;1148;22949;-61
2021/01/06 07:56:37;;;;;;;69.03;31.17;;;;;;;0.99;88.92;99771.66;120576;1147;22924;-58
2021/01/06 07:59:19;;;;;;;66.60;30.47;;;;;;;1.01;88.64;99773.97;120630;1148;22952;-59
2021/01/06 08:01:55;;;;;;;63.60;31.80;;;;;;;1.03;89.37;99785.31;120591;1148;24676;-60
2021/01/06 08:04:31;;;;;;;84.17;40.53;;;;;;;1.05;88.85;99788.41;120931;1147;22918;-61
2021/01/06 08:07:06;;;;;;;89.33;42.90;;;;;;;1.05;88.81;99788.41;120645;1147;26381;-59
2021/01/06 08:09:40;;;;;;;112.50;48.17;;;;;;;1.06;88.90;99784.45;120630;1148;23074;-60
2021/01/06 08:12:22;;;;;;;104.03;44.87;;;;;;;1.06;89.08;99785.23;120581;1146;23122;-60
2021/01/06 08:15:06;;;;;;;98.80;38.90;;;;;;;1.06;88.96;99787.98;120610;1147;25659;-59
2021/01/06 08:17:45;;;;;;;82.23;36.93;;;;;;;1.06;89.46;99789.95;120616;1148;23026;-60
2021/01/06 08:20:22;;;;;;;93.13;40.17;;;;;;;1.08;88.92;99785.58;120809;1146;23028;-60
2021/01/06 08:23:02;;;;;;;102.10;43.40;;;;;;;1.10;89.49;99787.89;120713;1147;22924;-59
2021/01/06 08:25:34;;;;;;;94.87;40.63;;;;;;;1.11;89.59;99783.95;120688;1147;22969;-60
2021/01/06 08:28:17;;;;;;;79.60;33.90;;;;;;;1.13;89.39;99789.80;120649;1148;22966;-58
2021/01/06 08:30:47;;;;;;;78.50;33.00;;;;;;;1.13;89.62;99787.84;120666;1148;27212;-62
2021/01/06 08:33:20;;;;;;;76.70;33.67;;;;;;;1.15;89.46;99793.68;120609;1147;27392;-61
2021/01/06 08:35:52;;;;;;;63.40;30.63;;;;;;;1.17;88.98;99790.50;120679;1146;22860;-59
2021/01/06 08:38:27;;;;;;;70.73;30.37;;;;;;;1.17;89.28;99788.53;120662;1147;22938;-61
2021/01/06 08:41:16;;;;;;;77.37;32.70;;;;;;;1.19;89.54;99782.59;120563;1146;25893;-61
2021/01/06 08:43:47;;;;;;;67.05;29.20;;;;;;;1.21;89.41;99778.23;120687;1146;25836;-59
2021/01/06 08:46:27;;;;;;;68.37;30.30;;;;;;;1.24;89.38;99768.36;120715;1148;23025;-60
2021/01/06 08:49:09;;;;;;;64.57;31.43;;;;;;;1.25;89.52;99781.67;120572;1147;22913;-65
2021/01/06 08:51:44;;;;;;;67.03;30.03;;;;;;;1.25;89.51;99780.89;120614;1147;22924;-58
2021/01/06 08:54:28;;;;;;;63.50;29.43;;;;;;;1.28;89.79;99782.80;120682;1147;22930;-59
2021/01/06 08:57:08;;;;;;;66.70;29.70;;;;;;;1.29;89.50;99779.61;120621;1148;22913;-60
2021/01/06 08:59:39;;;;;;;63.20;28.40;;;;;;;1.30;89.66;99780.39;120766;1147;23017;-60
2021/01/06 09:02:18;;;;;;;69.40;31.87;;;;;;;1.32;89.45;99786.23;120580;1147;22949;-59
2021/01/06 09:04:48;;;;;;;69.87;32.43;;;;;;;1.33;89.63;99788.55;120593;1147;27645;-60
2021/01/06 09:07:22;;;;;;;78.12;37.58;;;;;;;1.36;89.38;99789.68;120630;1147;22950;-61
2021/01/06 09:10:11;;;;;;;84.53;38.83;;;;;;;1.39;89.44;99791.56;120660;1147;26353;-61
2021/01/06 09:13:02;;;;;;;70.97;32.17;;;;;;;1.40;89.22;99776.62;120751;1148;23003;-59
2021/01/06 09:15:40;;;;;;;61.27;28.37;;;;;;;1.43;89.88;99773.78;120687;1146;26072;-59
2021/01/06 09:18:18;;;;;;;48.80;23.87;;;;;;;1.48;90.02;99775.25;120574;1146;23060;-61
2021/01/06 09:21:06;;;;;;;54.23;26.87;;;;;;;1.52;89.90;99778.69;120692;1147;23823;-61
2021/01/06 09:23:39;;;;;;;64.33;25.00;;;;;;;1.52;89.55;99775.94;120544;1146;22945;-59
2021/01/06 09:26:16;;;;;;;48.83;23.63;;;;;;;1.55;89.48;99775.09;120601;1146;23333;-61
2021/01/06 09:28:53;;;;;;;50.07;22.57;;;;;;;1.57;89.59;99770.69;120919;1146;26830;-61
2021/01/06 09:31:24;;;;;;;58.93;26.70;;;;;;;1.61;89.54;99770.63;120522;1148;22912;-62
2021/01/06 09:33:57;;;;;;;105.75;49.85;;;;;;;1.62;89.38;99769.41;120691;1147;22913;-60
2021/01/06 09:36:28;;;;;;;88.40;41.33;;;;;;;1.63;89.37;99777.22;120554;1147;26339;-60
2021/01/06 09:38:59;;;;;;;76.10;34.27;;;;;;;1.64;89.42;99776.03;120652;1148;25223;-61
2021/01/06 09:41:33;;;;;;;75.03;32.30;;;;;;;1.68;89.44;99764.93;120693;1147;22938;-62
2021/01/06 09:44:06;;;;;;;74.77;32.00;;;;;;;1.71;89.69;99768.80;120697;1147;23103;-61
2021/01/06 09:46:46;;;;;;;91.80;37.07;;;;;;;1.74;89.71;99765.20;120493;1146;22952;-61
2021/01/06 09:49:22;;;;;;;99.97;41.77;;;;;;;1.76;89.93;99769.05;120471;1147;22917;-61
2021/01/06 09:51:59;;;;;;;94.23;41.30;;;;;;;1.78;90.01;99758.39;121048;1146;27247;-61
2021/01/06 09:54:33;;;;;;;66.10;29.07;;;;;;;1.80;89.44;99755.23;120319;1147;22973;-61
2021/01/06 09:57:06;;;;;;;68.00;28.37;;;;;;;1.79;89.21;99762.70;120595;1147;23533;-61
2021/01/06 09:59:38;;;;;;;66.97;30.37;;;;;;;1.84;89.55;99769.67;120659;1146;22965;-62
2021/01/06 10:02:22;;;;;;;71.47;29.40;;;;;;;1.84;89.26;99770.45;120322;1148;23107;-59
2021/01/06 10:04:56;;;;;;;66.53;26.47;;;;;;;1.85;89.25;99769.23;120489;1147;24318;-61
2021/01/06 10:07:39;;;;;;;62.17;28.83;;;;;;;1.85;89.28;99763.73;120649;1146;23078;-62
2021/01/06 10:10:16;;;;;;;70.40;34.60;;;;;;;1.83;89.58;99760.62;120658;1146;27357;-60
2021/01/06 10:12:56;;;;;;;73.67;32.23;;;;;;;1.82;89.13;99752.81;120573;1146;23006;-60
2021/01/06 10:15:57;;;;;;;78.07;32.05;;;;;;;1.81;89.06;99754.00;120788;1147;25967;-66
2021/01/06 10:18:52;;;;;;;69.40;27.47;;;;;;;1.81;89.11;99752.03;120320;1146;22912;-60
2021/01/06 10:21:33;;;;;;;63.45;28.85;;;;;;;1.80;88.89;99750.47;120535;1147;22946;-61
2021/01/06 10:24:20;;;;;;;66.27;28.00;;;;;;;1.80;89.20;99750.47;120809;1146;22949;-61
2021/01/06 10:27:04;;;;;;;53.45;22.50;;;;;;;1.81;88.88;99743.78;120578;1147;22935;-62
2021/01/06 10:29:45;;;;;;;56.80;23.20;;;;;;;1.82;88.79;99741.80;120478;1147;22890;-62
2021/01/06 10:32:50;;;;;;;61.80;26.63;;;;;;;1.85;89.36;99736.20;120350;1146;22917;-63
2021/01/06 10:35:37;;;;;;;55.85;23.50;;;;;;;1.88;89.70;99737.33;120602;1150;27821;-62
2021/01/06 10:38:29;;;;;;;59.87;26.27;;;;;;;1.90;89.23;99732.16;119997;1150;23382;-61
2021/01/06 10:41:23;;;;;;;51.70;23.23;;;;;;;1.90;89.14;99743.17;120199;1151;22951;-62
2021/01/06 10:43:55;;;;;;;56.73;24.00;;;;;;;1.94;89.21;99741.09;120841;1150;22939;-61
2021/01/06 10:46:37;;;;;;;84.87;41.23;;;;;;;1.97;89.56;99741.00;120598;1149;22928;-64
2021/01/06 10:49:13;;;;;;;59.23;30.17;;;;;;;2.03;89.61;99735.76;120338;1149;22961;-61
2021/01/06 10:52:15;;;;;;;61.40;27.77;;;;;;;2.05;89.39;99723.08;120259;1149;22920;-61
2021/01/06 10:54:56;;;;;;;77.47;33.27;;;;;;;2.09;89.47;99734.02;121350;1151;23086;-60
2021/01/06 10:57:29;;;;;;;;;;;;;;;2.11;89.08;99726.09;120032;1153;23038;-60
2021/01/06 11:00:17;;;;;;;58.20;28.13;;;;;;;2.13;89.27;99726.44;120328;1151;21570;-62
2021/01/06 11:03:22;;;;;;;64.23;29.23;;;;;;;2.13;88.95;99726.44;119924;1151;26002;-61
2021/01/06 11:06:13;;;;;;;56.77;26.60;;;;;;;2.13;89.20;99716.17;120008;1150;22923;-62
2021/01/06 11:09:15;;;;;;;61.53;28.77;;;;;;;2.19;89.69;99719.94;120197;1150;22998;-61
2021/01/06 11:12:19;;;;;;;55.13;25.47;;;;;;;2.24;89.64;99713.13;120476;1149;22922;-61
2021/01/06 11:15:17;;;;;;;55.10;25.45;;;;;;;2.25;89.43;99720.98;120258;1149;22920;-61
2021/01/06 11:18:11;;;;;;;49.83;24.70;;;;;;;2.30;89.26;99716.89;120201;1150;24724;-59
2021/01/06 11:20:45;;;;;;;55.05;24.30;;;;;;;2.32;89.54;99719.98;120564;1149;22949;-61
2021/01/06 11:23:46;;;;;;;53.07;24.20;;;;;;;2.34;89.12;99715.59;120473;1150;24431;-62
2021/01/06 11:26:51;;;;;;;55.47;26.87;;;;;;;2.38;89.42;99712.73;119426;1154;22904;-60
2021/01/06 11:29:30;;;;;;;53.53;24.90;;;;;;;2.41;89.32;99707.14;119412;1154;22917;-60
2021/01/06 11:32:35;;;;;;;52.13;22.57;;;;;;;2.42;89.32;99713.44;119692;1153;23038;-61
2021/01/06 11:35:41;;;;;;;53.40;27.50;;;;;;;2.42;89.14;99700.41;119834;1154;22967;-61
2021/01/06 11:38:44;;;;;;;52.83;26.20;;;;;;;2.42;88.93;99697.66;119247;1154;22943;-60
2021/01/06 11:41:17;;;;;;;57.17;26.07;;;;;;;2.42;89.12;99700.41;119559;1153;22952;-62
2021/01/06 11:43:59;;;;;;;65.50;30.83;;;;;;;2.45;89.28;99696.02;119944;1154;23001;-61
2021/01/06 11:47:02;;;;;;;64.10;30.85;;;;;;;2.46;88.85;99698.33;120718;1154;27304;-61
2021/01/06 11:49:59;;;;;;;66.45;31.00;;;;;;;2.46;89.04;99692.81;119461;1156;22961;-60
2021/01/06 11:52:47;;;;;;;67.25;31.70;;;;;;;2.47;89.29;99696.35;119444;1156;23265;-60
2021/01/06 11:55:36;;;;;;;54.57;25.77;;;;;;;2.49;89.12;99688.42;123435;1156;22858;-62
2021/01/06 11:58:24;;;;;;;53.37;24.80;;;;;;;2.53;89.05;99685.55;123385;1156;22788;-61
2021/01/06 12:01:16;;;;;;;57.00;25.70;;;;;;;2.56;89.04;99687.45;123415;1156;22937;-60
2021/01/06 12:04:42;;;;;;;50.73;24.33;;;;;;;2.59;89.21;99678.31;120137;1157;22940;-60
2021/01/06 12:07:31;;;;;;;55.80;24.33;;;;;;;2.60;88.66;99675.11;119633;1152;28580;-60
2021/01/06 12:10:22;;;;;;;58.10;25.77;;;;;;;2.62;88.88;99680.18;120064;1152;22958;-61
2021/01/06 12:13:11;;;;;;;56.93;27.60;;;;;;;2.61;88.68;99684.91;119958;1151;27291;-61
2021/01/06 12:15:52;;;;;;;57.43;28.95;;;;;;;2.62;88.60;99680.18;120357;1150;26086;-61